DW9779 Galveston TX US current weather conditions

sailwx.info

Wind from 198 at 3 knots gusting 6

Air temperature 28.9° C
Dewpoint 25.7° C

Last reported at 2020-Aug-13 08:01 UTC.
Time now 2020-Aug-13 08:45 UTC

Location: N 29°18' W 094°52'.
View on Google Maps.

See reports from other nearby stations

  
Tides and Currents Weather Stations Pressure Air Temp Water Temp Dewpoint Dewpoint Depression Visibility Wind Speed Wind Dir Waves Ship Positions
date/time (UTC)wind fromknots sea level pressurealtimeterstation pressurevisibilityair tempwater tempwave heightnotes
2020-Aug-13 08:01 198 3 gusting 6 28.9
2020-Aug-13 07:46 160 4 gusting 6 28.9
2020-Aug-13 07:31 193 4 gusting 7 28.9
2020-Aug-13 07:16 209 6 gusting 8 28.9
2020-Aug-13 07:02 196 4 gusting 8 29.4
2020-Aug-13 06:46 205 5 gusting 7 28.9
2020-Aug-13 06:32 188 5 gusting 10 29.4
2020-Aug-13 06:15 198 5 gusting 9 29.4
2020-Aug-13 06:01 191 6 gusting 10 29.4
2020-Aug-13 05:46 184 6 gusting 13 29.4
2020-Aug-13 05:31 192 7 gusting 13 29.4
2020-Aug-13 05:16 193 7 gusting 11 29.4
2020-Aug-13 05:01 208 4 gusting 7 29.4
2020-Aug-13 04:45 209 6 gusting 9 29.4
2020-Aug-13 04:30 200 6 gusting 10 29.4
2020-Aug-13 04:15 200 6 gusting 10 29.4
2020-Aug-13 04:00 215 6 gusting 13 29.4
2020-Aug-13 03:45 173 5 gusting 9 29.4
2020-Aug-13 03:30 193 6 gusting 10 29.4
2020-Aug-13 03:15 173 5 gusting 10 29.4
2020-Aug-13 03:00 178 6 gusting 9 29.4
2020-Aug-13 02:45 153 6 gusting 8 29.4
2020-Aug-13 02:31 177 5 gusting 11 29.4
2020-Aug-13 02:16 196 4 gusting 10 29.4
2020-Aug-13 02:00 184 6 gusting 10 29.4
2020-Aug-13 01:45 163 6 gusting 11 29.4
2020-Aug-13 01:30 163 6 gusting 11 30.0
2020-Aug-13 01:15 211 6 gusting 11 30.0
2020-Aug-13 01:00 195 6 gusting 10 30.0
2020-Aug-13 00:45 174 5 gusting 12 30.0
2020-Aug-13 00:30 180 6 gusting 12 30.6
2020-Aug-13 00:15 195 6 gusting 11 30.6
2020-Aug-13 00:00 184 6 gusting 11 30.6
2020-Aug-12 23:45 167 6 gusting 12 30.6
2020-Aug-12 23:31 164 6 gusting 10 31.1
2020-Aug-12 23:15 198 8 gusting 13 30.6
2020-Aug-12 23:00 195 6 gusting 12 30.6
2020-Aug-12 22:45 150 6 gusting 12 31.1
2020-Aug-12 22:30 193 6 gusting 13 31.1
2020-Aug-12 22:15 155 9 gusting 13 31.1
2020-Aug-12 22:00 183 7 gusting 13 31.1
2020-Aug-12 21:45 186 8 gusting 13 31.1
2020-Aug-12 21:30 175 7 gusting 13 31.1
2020-Aug-12 21:15 155 6 gusting 13 31.7
2020-Aug-12 21:00 180 6 gusting 12 31.1
2020-Aug-12 20:45 140 6 gusting 13 31.7
2020-Aug-12 20:30 188 6 gusting 13 31.7
2020-Aug-12 20:15 175 6 gusting 13 31.1
2020-Aug-12 20:00 200 7 gusting 11 31.1
2020-Aug-12 19:45 202 9 gusting 16 31.1
2020-Aug-12 19:30 171 7 gusting 13 31.1
2020-Aug-12 19:15 199 7 gusting 13 31.1
2020-Aug-12 19:00 196 9 gusting 13 31.1
2020-Aug-12 18:45 175 7 gusting 11 31.1
2020-Aug-12 18:30 191 8 gusting 13 31.1
2020-Aug-12 18:15 214 7 gusting 11 31.1
2020-Aug-12 18:02 202 7 gusting 12 31.1
2020-Aug-12 18:00 180 7 gusting 12 31.1
2020-Aug-12 17:47 175 6 gusting 12 31.1
2020-Aug-12 17:32 207 6 gusting 11 31.1
2020-Aug-12 17:17 175 6 gusting 10 31.1
2020-Aug-12 17:01 211 7 gusting 11 31.1
2020-Aug-12 16:46 199 6 gusting 13 31.1
2020-Aug-12 16:32 205 8 gusting 12 31.1
2020-Aug-12 16:16 235 8 gusting 10 30.0
2020-Aug-12 16:01 235 8 gusting 13 30.0
2020-Aug-12 15:47 231 6 gusting 10 30.6
2020-Aug-12 15:31 243 6 gusting 10 30.6
2020-Aug-12 15:16 214 5 gusting 8 30.6
2020-Aug-12 15:01 250 5 gusting 8 29.4
2020-Aug-12 14:46 240 6 gusting 8 29.4
2020-Aug-12 14:31 252 8 gusting 13 29.4
2020-Aug-12 14:15 258 15 gusting 23 28.3
2020-Aug-12 14:01 206 6 gusting 10 30.0
2020-Aug-12 13:46 232 8 gusting 12 30.0
2020-Aug-12 13:30 216 6 gusting 12 30.0
2020-Aug-12 13:16 205 6 gusting 9 30.0
2020-Aug-12 13:00 212 5 gusting 8 29.4
2020-Aug-12 12:45 216 3 gusting 8 29.4
2020-Aug-12 12:30 200 6 gusting 8 29.4
2020-Aug-12 12:15 209 6 gusting 8 28.9
2020-Aug-12 12:01 189 5 gusting 7 28.9
2020-Aug-12 11:46 198 4 gusting 9 28.9
2020-Aug-12 11:30 190 4 gusting 8 28.9
2020-Aug-12 11:15 210 6 gusting 10 28.9
2020-Aug-12 11:00 176 5 gusting 9 28.9
2020-Aug-12 10:46 218 6 gusting 8 28.9
2020-Aug-12 10:30 195 4 gusting 10 28.9
2020-Aug-12 10:15 184 5 gusting 9 28.9
2020-Aug-12 10:01 215 5 gusting 8 28.9
2020-Aug-12 09:45 209 5 gusting 8 28.9
2020-Aug-12 09:30 196 4 gusting 6 28.9
2020-Aug-12 09:15 209 5 gusting 8 28.9
2020-Aug-12 09:00 209 4 gusting 7 28.9
2020-Aug-12 08:45 194 4 gusting 7 28.9
2020-Aug-12 08:30 207 5 gusting 9 28.9
2020-Aug-12 08:15 206 6 gusting 8 28.9
2020-Aug-12 08:00 200 5 gusting 9 29.4
2020-Aug-12 07:45 203 5 gusting 8 29.4
2020-Aug-12 07:30 171 4 gusting 10 29.4
2020-Aug-12 07:15 212 4 gusting 7 29.4
2020-Aug-12 07:00 203 5 gusting 9 29.4
2020-Aug-12 06:45 194 6 gusting 10 29.4
2020-Aug-12 06:30 170 4 gusting 11 29.4
2020-Aug-12 06:15 166 5 gusting 9 29.4
2020-Aug-12 06:03 185 5 gusting 10 29.4
2020-Aug-12 05:47 184 5 gusting 11 29.4
2020-Aug-12 05:32 193 6 gusting 9 29.4
2020-Aug-12 05:16 199 4 gusting 9 29.4
2020-Aug-12 05:01 161 5 gusting 8 29.4
2020-Aug-12 04:46 178 6 gusting 10 29.4
2020-Aug-12 04:34 165 6 gusting 9 29.4
2020-Aug-12 04:16 163 5 gusting 11 29.4
2020-Aug-12 04:01 163 5 gusting 10 29.4
2020-Aug-12 03:47 159 4 gusting 8 29.4
2020-Aug-12 03:31 196 3 gusting 9 29.4
2020-Aug-12 03:16 200 4 gusting 9 29.4
2020-Aug-12 03:03 180 5 gusting 8 29.4
2020-Aug-12 02:46 180 5 gusting 8 29.4
2020-Aug-12 02:33 166 4 gusting 7 30.0
2020-Aug-12 02:16 195 5 gusting 9 29.4
2020-Aug-12 01:47 184 6 gusting 13 30.0
2020-Aug-12 01:31 185 6 gusting 11 30.0
2020-Aug-12 01:16 195 6 gusting 10 30.0
2020-Aug-12 01:01 177 6 gusting 11 30.0
2020-Aug-12 00:46 186 5 gusting 13 30.0
2020-Aug-12 00:31 169 6 gusting 13 30.6
2020-Aug-12 00:16 180 5 gusting 12 30.6
2020-Aug-12 00:01 200 6 gusting 9 30.6
2020-Aug-11 23:46 185 6 gusting 13 30.6
2020-Aug-11 23:31 162 6 gusting 13 31.1
2020-Aug-11 23:15 223 9 gusting 13 31.1
2020-Aug-11 23:00 163 7 gusting 11 31.1
2020-Aug-11 22:45 165 7 gusting 12 31.1
2020-Aug-11 22:31 187 7 gusting 12 31.1
2020-Aug-11 22:16 176 7 gusting 15 31.1
2020-Aug-11 21:46 152 6 gusting 13 31.1
2020-Aug-11 21:30 138 7 gusting 13 31.1
2020-Aug-11 21:15 173 8 gusting 13 31.1
2020-Aug-11 21:00 159 6 gusting 10 31.1
2020-Aug-11 20:46 198 7 gusting 15 31.1
2020-Aug-11 20:30 173 7 gusting 12 31.1
2020-Aug-11 20:15 178 7 gusting 13 31.1
2020-Aug-11 20:00 192 6 gusting 13 31.1
2020-Aug-11 19:45 194 7 gusting 11 31.1
2020-Aug-11 19:30 182 7 gusting 12 31.1
2020-Aug-11 19:16 194 6 gusting 13 31.1
2020-Aug-11 19:00 152 6 gusting 13 31.1
2020-Aug-11 18:45 211 6 gusting 12 31.1
2020-Aug-11 18:30 161 6 gusting 13 31.1
2020-Aug-11 18:15 196 8 gusting 13 31.1
2020-Aug-11 18:00 169 6 gusting 13 31.1
2020-Aug-11 17:45 191 7 gusting 12 31.1
2020-Aug-11 17:30 198 6 gusting 11 31.1
2020-Aug-11 17:15 175 6 gusting 12 31.1
2020-Aug-11 17:00 215 7 gusting 12 31.1
2020-Aug-11 16:45 173 5 gusting 9 31.1
2020-Aug-11 16:30 148 7 gusting 12 31.1
2020-Aug-11 16:15 153 6 gusting 11 31.1
2020-Aug-11 16:00 173 8 gusting 13 31.1
2020-Aug-11 15:45 219 7 gusting 12 30.6
2020-Aug-11 15:30 199 6 gusting 13 30.0
2020-Aug-11 15:15 203 7 gusting 14 30.6
2020-Aug-11 15:02 192 6 gusting 10 30.0
2020-Aug-11 14:47 194 6 gusting 12 30.0
2020-Aug-11 14:32 182 6 gusting 13 30.0
2020-Aug-11 14:16 205 6 gusting 12 30.6
2020-Aug-11 14:01 170 6 gusting 13 30.0
2020-Aug-11 13:47 184 5 gusting 11 30.0
2020-Aug-11 13:31 188 6 gusting 9 30.0
2020-Aug-11 13:17 188 6 gusting 12 29.4
2020-Aug-11 13:03 182 6 gusting 12 29.4
2020-Aug-11 12:46 183 3 gusting 10 29.4
2020-Aug-11 12:31 185 3 gusting 8 29.4
2020-Aug-11 12:16 173 3 gusting 8 28.9
2020-Aug-11 12:00 201 5 gusting 8 28.9
2020-Aug-11 11:45 200 5 gusting 9 28.9
2020-Aug-11 11:31 164 4 gusting 11 28.9
2020-Aug-11 11:16 183 6 gusting 12 28.9
2020-Aug-11 11:01 182 5 gusting 9 28.9
2020-Aug-11 10:46 188 5 gusting 13 28.9
2020-Aug-11 10:31 192 6 gusting 12 28.9
2020-Aug-11 10:16 144 5 gusting 11 28.9
2020-Aug-11 10:01 173 4 gusting 9 28.9
2020-Aug-11 09:46 177 5 gusting 7 28.9
2020-Aug-11 09:31 151 3 gusting 6 28.9
2020-Aug-11 09:15 171 1 gusting 9 28.9
2020-Aug-11 09:01 177 5 gusting 13 28.9
2020-Aug-11 08:45 157 5 gusting 7 28.9
2020-Aug-11 08:31 173 4 gusting 12 28.9
2020-Aug-11 08:15 170 6 gusting 12 29.4
2020-Aug-11 08:01 153 5 gusting 9 29.4